Time;durP1;ratioP1;P1;durP2;ratioP2;P2;SDS_P1;SDS_P2;PMS_P1;PMS_P2;Temp;Humidity;BMP_temperature;BMP_pressure;BME280_temperature;BME280_humidity;BME280_pressure;Samples;Min_cycle;Max_cycle;Signal;HPM_P1;HPM_P2
2022/01/01 00:02:12;;;;;;;58.75;30.52;;;11.40;99.90;;;;;;5102420;28;20047;-67
2022/01/01 00:04:39;;;;;;;60.63;29.70;;;11.50;99.90;;;;;;5105440;28;20451;-67
2022/01/01 00:07:05;;;;;;;54.22;29.40;;;11.40;99.90;;;;;;5104004;28;20044;-67
2022/01/01 00:09:31;;;;;;;52.53;29.67;;;11.40;99.90;;;;;;5098924;28;20048;-67
2022/01/01 00:11:56;;;;;;;51.13;28.40;;;11.30;99.90;;;;;;5103210;28;20048;-67
2022/01/01 00:14:22;;;;;;;54.78;28.92;;;11.40;99.90;;;;;;5102728;28;20047;-67
2022/01/01 00:16:48;;;;;;;54.28;27.95;;;11.30;99.90;;;;;;5101707;28;20048;-67
2022/01/01 00:19:13;;;;;;;53.25;26.38;;;11.40;99.90;;;;;;5104292;28;20126;-67
2022/01/01 00:21:41;;;;;;;52.38;27.05;;;11.30;99.90;;;;;;5104589;28;20043;-67
2022/01/01 00:24:07;;;;;;;54.83;26.67;;;11.40;99.90;;;;;;5101937;28;20044;-67
2022/01/01 00:26:32;;;;;;;55.72;25.90;;;11.50;99.90;;;;;;5104695;28;20048;-67
2022/01/01 00:28:58;;;;;;;58.10;26.73;;;11.50;99.90;;;;;;5103510;28;20040;-67
2022/01/01 00:31:25;;;;;;;47.63;23.80;;;11.50;99.90;;;;;;5105298;28;20036;-67
2022/01/01 00:33:50;;;;;;;47.38;22.40;;;11.30;99.90;;;;;;5085093;28;20073;-67
2022/01/01 00:36:16;;;;;;;52.75;21.17;;;11.40;99.90;;;;;;5104607;28;20044;-67
2022/01/01 00:38:42;;;;;;;46.80;20.02;;;11.50;99.90;;;;;;5104898;28;20044;-67
2022/01/01 00:41:08;;;;;;;43.90;17.83;;;11.40;99.90;;;;;;5107246;28;20044;-67
2022/01/01 00:43:34;;;;;;;47.65;19.52;;;11.50;99.90;;;;;;5107435;28;20054;-67
2022/01/01 00:45:59;;;;;;;41.53;18.65;;;11.50;99.90;;;;;;5102931;28;20040;-67
2022/01/01 00:48:25;;;;;;;48.10;19.25;;;11.40;99.90;;;;;;5124117;28;20083;-67
2022/01/01 00:50:51;;;;;;;45.10;18.70;;;11.40;99.90;;;;;;5104926;28;20115;-67
2022/01/01 00:53:16;;;;;;;50.88;20.13;;;11.40;99.90;;;;;;5107060;28;20044;-67
2022/01/01 00:55:42;;;;;;;51.00;21.08;;;11.50;99.90;;;;;;5109706;28;20044;-67
2022/01/01 00:58:08;;;;;;;44.83;17.85;;;11.50;99.90;;;;;;5108839;28;20067;-67
2022/01/01 01:00:34;;;;;;;50.90;20.80;;;11.60;99.90;;;;;;5110975;28;20055;-67
2022/01/01 01:03:00;;;;;;;39.78;17.98;;;11.50;99.90;;;;;;5103611;28;20051;-67
2022/01/01 01:05:26;;;;;;;42.50;18.45;;;11.50;99.90;;;;;;5103349;28;20043;-67
2022/01/01 01:07:51;;;;;;;47.50;19.42;;;11.50;99.90;;;;;;5106218;28;20050;-67
2022/01/01 01:10:17;;;;;;;50.60;20.10;;;11.50;99.90;;;;;;5106966;28;20044;-67
2022/01/01 01:12:47;;;;;;;48.10;21.40;;;11.50;99.90;;;;;;5100239;28;20042;-67
2022/01/01 01:15:19;;;;;;;50.30;20.10;;;11.50;99.90;;;;;;5105890;28;20126;-67
2022/01/01 01:17:50;;;;;;;46.08;20.48;;;11.40;99.90;;;;;;5105629;28;20036;-67
2022/01/01 01:20:16;;;;;;;60.10;22.05;;;11.40;99.90;;;;;;5105847;28;20281;-67
2022/01/01 01:22:42;;;;;;;49.83;24.00;;;11.50;99.90;;;;;;5106056;28;20055;-67
2022/01/01 01:25:09;;;;;;;66.05;34.17;;;11.40;99.90;;;;;;5102422;28;20514;-67
2022/01/01 01:27:36;;;;;;;58.58;28.63;;;11.40;99.90;;;;;;5089810;28;20059;-67
2022/01/01 01:30:04;;;;;;;63.25;27.50;;;11.50;99.90;;;;;;5105322;28;20044;-67
2022/01/01 01:32:30;;;;;;;59.38;29.10;;;11.30;99.90;;;;;;5104237;28;20092;-67
2022/01/01 01:34:56;;;;;;;59.88;30.30;;;11.40;99.90;;;;;;5105884;28;20056;-67
2022/01/01 01:37:23;;;;;;;53.88;24.92;;;11.40;99.90;;;;;;5109387;28;20044;-67
2022/01/01 01:39:48;;;;;;;59.28;29.02;;;11.50;99.90;;;;;;5105633;28;20048;-67
2022/01/01 01:42:14;;;;;;;57.80;26.05;;;11.40;99.90;;;;;;5122444;28;20448;-67
2022/01/01 01:44:44;;;;;;;60.92;27.38;;;11.40;99.90;;;;;;5106177;28;20052;-67
2022/01/01 01:47:15;;;;;;;61.30;27.65;;;11.30;99.90;;;;;;5105278;28;20136;-67
2022/01/01 01:49:46;;;;;;;62.60;28.60;;;11.40;99.90;;;;;;5103525;28;20052;-67
2022/01/01 01:52:12;;;;;;;66.45;32.00;;;11.40;99.90;;;;;;5104873;28;20053;-67
2022/01/01 01:54:39;;;;;;;75.65;37.25;;;11.40;99.90;;;;;;5106449;28;20044;-67
2022/01/01 01:57:05;;;;;;;75.13;37.20;;;11.30;99.90;;;;;;5103301;28;20060;-67
2022/01/01 01:59:31;;;;;;;77.63;37.58;;;11.30;99.90;;;;;;5108236;28;20093;-67
2022/01/01 02:01:57;;;;;;;78.80;38.10;;;11.30;99.90;;;;;;5105567;28;20404;-67
2022/01/01 02:04:22;;;;;;;77.35;40.50;;;11.30;99.90;;;;;;5101901;28;20103;-67
2022/01/01 02:06:48;;;;;;;74.05;36.42;;;11.30;99.90;;;;;;5105534;28;20055;-67
2022/01/01 02:09:15;;;;;;;72.63;41.20;;;11.30;99.90;;;;;;5107708;28;20057;-67
2022/01/01 02:11:41;;;;;;;77.07;39.03;;;11.20;99.90;;;;;;5102603;28;20074;-67
2022/01/01 02:19:28;;;;;;;79.38;39.83;;;11.30;99.90;;;;;;5105158;28;20055;-67
2022/01/01 02:21:58;;;;;;;81.45;39.85;;;11.30;99.90;;;;;;5105216;28;20050;-67
2022/01/01 02:24:25;;;;;;;;;;;11.30;99.90;;;;;;5105280;28;20039;-67
2022/01/01 02:26:51;;;;;;;72.18;39.53;;;11.20;99.90;;;;;;5103104;28;19991;-67
2022/01/01 02:29:17;;;;;;;81.43;40.72;;;11.20;99.90;;;;;;5107900;28;20048;-67
2022/01/01 02:31:43;;;;;;;82.55;38.85;;;11.20;99.90;;;;;;5110975;28;20044;-67
2022/01/01 02:34:10;;;;;;;78.60;39.75;;;11.20;99.90;;;;;;5104533;28;20044;-67
2022/01/01 02:36:38;;;;;;;77.53;38.97;;;11.20;99.90;;;;;;5108095;28;20048;-67
2022/01/01 02:39:17;;;;;;;72.22;39.17;;;11.20;99.90;;;;;;5108796;28;20044;-67
2022/01/01 02:41:44;;;;;;;77.88;40.33;;;11.00;99.90;;;;;;5106928;28;20040;-67
2022/01/01 02:44:10;;;;;;;75.10;38.67;;;11.00;99.90;;;;;;5105832;28;20050;-67
2022/01/01 02:46:36;;;;;;;77.90;39.63;;;11.10;99.90;;;;;;5104081;28;20115;-67
2022/01/01 02:49:03;;;;;;;68.90;36.50;;;11.00;99.90;;;;;;5103947;28;20060;-67
2022/01/01 02:51:29;;;;;;;77.70;38.90;;;11.00;99.90;;;;;;5106680;28;20040;-67
2022/01/01 02:53:54;;;;;;;73.95;37.80;;;11.00;99.90;;;;;;5104394;28;20054;-67
2022/01/01 02:56:20;;;;;;;80.78;39.55;;;11.10;99.90;;;;;;5103833;28;20044;-67
2022/01/01 02:58:46;;;;;;;81.45;39.13;;;11.10;99.90;;;;;;5100524;28;20067;-67
2022/01/01 03:01:12;;;;;;;75.95;39.40;;;11.20;99.90;;;;;;5106253;28;20051;-67
2022/01/01 03:03:37;;;;;;;79.68;40.83;;;11.20;99.90;;;;;;5084251;28;20044;-67
2022/01/01 03:06:03;;;;;;;73.20;37.83;;;11.20;99.90;;;;;;5104813;28;20113;-67
2022/01/01 03:08:29;;;;;;;85.55;40.75;;;11.30;99.90;;;;;;5084562;28;20047;-67
2022/01/01 03:10:55;;;;;;;83.93;38.22;;;11.20;99.90;;;;;;5097253;28;20040;-67
2022/01/01 03:13:20;;;;;;;79.60;38.97;;;11.30;99.90;;;;;;5103393;28;20044;-67
2022/01/01 03:15:46;;;;;;;81.32;39.47;;;11.20;99.90;;;;;;5103353;28;20040;-67
2022/01/01 03:18:12;;;;;;;78.00;39.25;;;11.20;99.90;;;;;;5100468;28;20428;-67
2022/01/01 03:20:38;;;;;;;69.40;37.78;;;11.30;99.90;;;;;;5104354;28;20070;-67
2022/01/01 03:23:04;;;;;;;75.30;38.28;;;11.30;99.90;;;;;;5104373;28;20040;-67
2022/01/01 03:25:30;;;;;;;80.95;39.67;;;11.30;99.90;;;;;;5103796;28;20044;-67
2022/01/01 03:27:56;;;;;;;87.93;41.40;;;11.30;99.90;;;;;;5104915;28;20080;-67
2022/01/01 03:30:22;;;;;;;73.30;39.20;;;11.20;99.90;;;;;;5087216;28;20103;-67
2022/01/01 03:32:47;;;;;;;77.05;38.85;;;11.30;99.90;;;;;;5104998;28;20044;-67
2022/01/01 03:35:13;;;;;;;81.00;40.75;;;11.30;99.90;;;;;;5104177;28;20083;-67
2022/01/01 03:37:39;;;;;;;84.30;42.60;;;11.20;99.90;;;;;;5104986;28;20064;-67
2022/01/01 03:40:06;;;;;;;88.78;42.78;;;11.20;99.90;;;;;;5104997;28;20589;-67
2022/01/01 03:42:32;;;;;;;90.25;45.78;;;11.20;99.90;;;;;;5097998;28;20086;-67
2022/01/01 03:44:58;;;;;;;88.97;45.88;;;11.20;99.90;;;;;;5110744;28;20048;-67
2022/01/01 03:47:24;;;;;;;85.88;48.15;;;11.20;99.90;;;;;;5101799;28;20115;-67
2022/01/01 03:49:50;;;;;;;85.63;48.58;;;11.20;99.90;;;;;;5101859;28;20484;-67
2022/01/01 03:52:16;;;;;;;93.53;51.03;;;11.20;99.90;;;;;;5104934;28;20056;-67
2022/01/01 03:54:42;;;;;;;94.15;51.90;;;11.30;99.90;;;;;;5103330;28;20074;-67
2022/01/01 03:57:07;;;;;;;97.97;51.83;;;11.20;99.90;;;;;;5102833;28;20040;-67
2022/01/01 03:59:34;;;;;;;93.30;52.25;;;11.30;99.90;;;;;;5103268;28;20500;-67
2022/01/01 04:01:59;;;;;;;101.40;53.03;;;11.30;99.90;;;;;;5120187;28;20040;-67
2022/01/01 04:04:26;;;;;;;94.72;54.13;;;11.20;99.90;;;;;;5103711;28;20079;-67
2022/01/01 04:06:52;;;;;;;104.68;54.83;;;11.30;99.90;;;;;;5089293;28;20041;-67
2022/01/01 04:09:18;;;;;;;102.50;57.60;;;11.20;99.90;;;;;;5103881;28;20495;-67
2022/01/01 04:11:44;;;;;;;114.60;58.90;;;11.10;99.90;;;;;;5120607;28;20040;-67
2022/01/01 04:14:12;;;;;;;114.43;60.88;;;11.20;99.90;;;;;;5103984;28;20044;-67
2022/01/01 04:16:39;;;;;;;118.82;61.38;;;11.10;99.90;;;;;;5110337;28;20086;-67
2022/01/01 04:19:04;;;;;;;109.43;61.55;;;11.20;99.90;;;;;;5107639;28;20052;-67
2022/01/01 04:21:30;;;;;;;113.65;61.35;;;11.20;99.90;;;;;;5107626;28;20044;-67
2022/01/01 04:23:56;;;;;;;110.13;63.50;;;11.10;99.90;;;;;;5106296;28;20515;-67
2022/01/01 04:26:23;;;;;;;111.32;61.70;;;11.20;99.90;;;;;;5108017;28;20063;-67
2022/01/01 04:28:49;;;;;;;117.05;64.05;;;11.30;99.90;;;;;;5106747;28;20054;-67
2022/01/01 04:31:15;;;;;;;120.43;63.92;;;11.10;99.90;;;;;;5104753;28;20071;-67
2022/01/01 04:33:42;;;;;;;116.75;64.95;;;11.20;99.90;;;;;;5124216;28;20047;-67
2022/01/01 04:36:08;;;;;;;108.43;62.20;;;11.10;99.90;;;;;;5106469;28;20040;-67
2022/01/01 04:38:38;;;;;;;111.68;62.00;;;11.20;99.90;;;;;;5106779;28;20059;-67
2022/01/01 04:41:12;;;;;;;115.75;64.03;;;11.10;99.90;;;;;;5105069;28;20052;-67
2022/01/01 04:43:40;;;;;;;108.78;59.47;;;11.20;99.90;;;;;;5105849;28;20048;-67
2022/01/01 04:46:06;;;;;;;114.22;62.05;;;11.20;99.90;;;;;;5089767;28;20058;-67
2022/01/01 04:48:31;;;;;;;110.35;60.88;;;11.20;99.90;;;;;;5107746;28;20076;-67
2022/01/01 04:50:57;;;;;;;107.32;60.72;;;11.20;99.90;;;;;;5109534;28;20043;-67
2022/01/01 04:53:23;;;;;;;103.55;57.20;;;11.20;99.90;;;;;;5112609;28;20043;-67
2022/01/01 04:55:49;;;;;;;113.43;59.00;;;11.30;99.90;;;;;;5102840;28;20044;-67
2022/01/01 04:58:16;;;;;;;103.93;58.58;;;11.30;99.90;;;;;;5105664;28;20048;-67
2022/01/01 05:00:42;;;;;;;107.22;58.95;;;11.20;99.90;;;;;;5108398;28;20048;-67
2022/01/01 05:03:08;;;;;;;114.03;58.55;;;11.20;99.90;;;;;;5107067;28;20389;-67
2022/01/01 05:05:33;;;;;;;108.40;59.35;;;11.20;99.90;;;;;;5087870;28;20078;-67
2022/01/01 05:07:59;;;;;;;100.65;57.70;;;11.30;99.90;;;;;;5110289;28;20101;-67
2022/01/01 05:10:25;;;;;;;107.70;59.70;;;11.30;99.90;;;;;;5108688;28;20040;-67
2022/01/01 05:12:53;;;;;;;104.07;59.90;;;11.20;99.90;;;;;;5105838;28;20094;-67
2022/01/01 05:15:19;;;;;;;104.00;59.78;;;11.20;99.90;;;;;;5105689;28;20051;-67
2022/01/01 05:17:45;;;;;;;109.38;58.47;;;11.20;99.90;;;;;;5106671;28;20047;-67
2022/01/01 05:20:11;;;;;;;101.82;58.92;;;11.30;99.90;;;;;;5123653;28;20052;-67
2022/01/01 05:22:37;;;;;;;104.97;58.85;;;11.30;99.90;;;;;;5107291;28;20040;-67
2022/01/01 05:25:03;;;;;;;113.15;56.72;;;11.30;99.90;;;;;;5122809;28;20051;-67
2022/01/01 05:27:32;;;;;;;111.45;59.08;;;11.20;99.90;;;;;;5087953;28;20044;-67
2022/01/01 05:29:58;;;;;;;112.93;57.47;;;11.40;99.90;;;;;;5105011;28;20504;-67
2022/01/01 05:32:24;;;;;;;99.80;55.33;;;11.30;99.90;;;;;;5106373;28;20071;-67
2022/01/01 05:34:49;;;;;;;109.57;54.65;;;11.20;99.90;;;;;;5106781;28;20135;-67
2022/01/01 05:37:15;;;;;;;102.05;56.67;;;11.30;99.90;;;;;;5107140;28;20048;-67
2022/01/01 05:39:41;;;;;;;108.38;56.05;;;11.30;99.90;;;;;;5102865;28;20500;-67
2022/01/01 05:42:07;;;;;;;102.28;53.95;;;11.30;99.90;;;;;;5103857;28;20051;-67
2022/01/01 05:44:33;;;;;;;106.20;54.38;;;11.40;99.90;;;;;;5122677;28;20043;-67
2022/01/01 05:46:59;;;;;;;98.85;54.60;;;11.30;99.90;;;;;;5103030;28;20119;-67
2022/01/01 05:49:25;;;;;;;108.32;52.08;;;11.30;99.90;;;;;;5103521;28;20047;-67
2022/01/01 05:51:50;;;;;;;100.18;52.40;;;11.40;99.90;;;;;;5105876;28;20048;-67
2022/01/01 05:54:16;;;;;;;98.97;52.38;;;11.30;99.90;;;;;;5106958;28;20047;-67
2022/01/01 05:56:42;;;;;;;98.18;50.58;;;11.30;99.90;;;;;;5112681;28;20080;-67
2022/01/01 05:59:07;;;;;;;101.55;52.53;;;11.40;99.90;;;;;;5088938;28;20044;-67
2022/01/01 06:01:33;;;;;;;93.50;48.20;;;11.20;99.90;;;;;;5107705;28;20095;-67
2022/01/01 06:03:59;;;;;;;99.10;48.97;;;11.30;99.90;;;;;;5100063;28;20497;-67
2022/01/01 06:06:24;;;;;;;90.50;47.10;;;11.30;99.90;;;;;;5099151;28;20051;-67
2022/01/01 06:08:50;;;;;;;92.20;46.72;;;11.30;99.90;;;;;;5105002;28;20067;-67
2022/01/01 06:11:16;;;;;;;95.95;44.75;;;11.20;99.90;;;;;;5106563;28;20048;-67
2022/01/01 06:13:41;;;;;;;89.22;44.15;;;11.10;99.90;;;;;;5105487;28;20050;-67
2022/01/01 06:16:07;;;;;;;91.40;44.20;;;11.10;99.90;;;;;;5105836;28;20055;-67
2022/01/01 06:18:33;;;;;;;93.78;42.90;;;11.20;99.90;;;;;;5106560;28;20047;-67
2022/01/01 06:20:59;;;;;;;90.20;42.78;;;11.30;99.90;;;;;;5105888;28;20492;-67
2022/01/01 06:23:25;;;;;;;86.80;39.67;;;11.10;99.90;;;;;;5105383;28;20119;-67
2022/01/01 06:25:50;;;;;;;83.53;36.55;;;11.20;99.90;;;;;;5106583;28;20071;-67
2022/01/01 06:28:16;;;;;;;82.40;34.92;;;11.30;99.90;;;;;;5104931;28;20048;-67
2022/01/01 06:30:42;;;;;;;84.10;35.95;;;11.20;99.90;;;;;;5104376;28;20099;-67
2022/01/01 06:33:18;;;;;;;78.50;33.83;;;11.30;99.90;;;;;;5102012;28;20055;-67
2022/01/01 06:35:45;;;;;;;80.70;32.28;;;11.20;99.90;;;;;;5112708;28;20043;-67
2022/01/01 06:38:12;;;;;;;70.60;31.42;;;11.30;99.90;;;;;;5104446;28;20132;-67
2022/01/01 06:40:39;;;;;;;77.78;32.38;;;11.20;99.90;;;;;;5120891;28;20076;-67
2022/01/01 06:43:06;;;;;;;76.28;31.13;;;11.20;99.90;;;;;;5103425;28;20048;-67
2022/01/01 06:45:33;;;;;;;77.93;32.03;;;11.10;99.90;;;;;;5105151;28;20054;-67
2022/01/01 06:47:58;;;;;;;69.60;30.90;;;11.20;99.90;;;;;;5104921;28;20052;-67
2022/01/01 06:50:24;;;;;;;73.95;30.17;;;11.20;99.90;;;;;;5102129;28;20047;-67
2022/01/01 06:52:50;;;;;;;72.43;30.73;;;11.10;99.90;;;;;;5102932;28;20040;-67
2022/01/01 06:55:16;;;;;;;72.93;29.35;;;11.20;99.90;;;;;;5103253;28;20073;-67
2022/01/01 06:57:43;;;;;;;68.68;29.85;;;11.30;99.90;;;;;;5096751;28;20058;-67
2022/01/01 07:00:10;;;;;;;73.22;29.08;;;11.20;99.90;;;;;;5104408;28;20073;-67
2022/01/01 07:02:44;;;;;;;66.72;28.35;;;11.20;99.90;;;;;;5103901;28;20069;-67
2022/01/01 07:05:11;;;;;;;66.65;28.23;;;11.20;99.90;;;;;;5104900;28;20051;-67
2022/01/01 07:07:37;;;;;;;66.40;27.70;;;11.40;99.90;;;;;;5121184;28;20043;-67
2022/01/01 07:10:04;;;;;;;64.82;26.17;;;11.40;99.90;;;;;;5102935;28;20044;-67
2022/01/01 07:12:30;;;;;;;57.20;26.50;;;11.30;99.90;;;;;;5099872;28;20111;-67
2022/01/01 07:14:56;;;;;;;59.70;25.73;;;11.40;99.90;;;;;;5103237;28;20047;-67
2022/01/01 07:17:21;;;;;;;59.22;26.27;;;11.30;99.90;;;;;;5104470;28;20063;-67
2022/01/01 07:19:47;;;;;;;68.90;26.65;;;11.30;99.90;;;;;;5104545;28;20048;-67
2022/01/01 07:22:13;;;;;;;74.43;28.95;;;11.40;99.90;;;;;;5103831;28;20052;-67
2022/01/01 07:24:39;;;;;;;72.78;27.98;;;11.50;99.90;;;;;;5099505;28;20051;-67
2022/01/01 07:27:05;;;;;;;71.20;26.75;;;11.50;99.90;;;;;;5103723;28;20059;-67
2022/01/01 07:29:31;;;;;;;72.72;27.15;;;11.50;99.90;;;;;;5104784;28;20047;-67
2022/01/01 07:31:57;;;;;;;68.32;28.88;;;11.50;99.90;;;;;;5104315;28;20056;-67
2022/01/01 07:34:23;;;;;;;74.80;29.83;;;11.40;99.90;;;;;;5103422;28;20053;-67
2022/01/01 07:36:49;;;;;;;67.32;27.70;;;11.50;99.90;;;;;;5103461;28;20044;-67
2022/01/01 07:39:15;;;;;;;61.63;26.15;;;11.50;99.90;;;;;;5101352;28;20100;-67
2022/01/01 07:41:42;;;;;;;73.32;26.73;;;11.60;99.90;;;;;;5103374;28;20051;-67
2022/01/01 07:44:09;;;;;;;71.93;27.85;;;11.60;99.90;;;;;;5120781;28;20044;-67
2022/01/01 07:46:35;;;;;;;64.57;26.42;;;11.80;99.90;;;;;;5103418;28;20085;-67
2022/01/01 07:49:00;;;;;;;66.70;26.75;;;11.70;99.90;;;;;;5103664;28;20043;-67
2022/01/01 07:51:26;;;;;;;64.70;26.98;;;11.60;99.90;;;;;;5109133;28;20047;-67
2022/01/01 07:53:52;;;;;;;64.53;25.38;;;11.70;99.90;;;;;;5108440;28;20047;-67
2022/01/01 07:56:18;;;;;;;56.88;24.60;;;11.70;99.90;;;;;;5110575;28;20048;-67
2022/01/01 07:58:43;;;;;;;57.10;25.55;;;11.80;99.90;;;;;;5094641;28;20055;-67
2022/01/01 08:01:09;;;;;;;57.97;25.48;;;11.70;99.90;;;;;;5108723;28;20048;-67
2022/01/01 08:03:35;;;;;;;58.15;25.50;;;11.80;99.90;;;;;;5107860;28;20052;-67
2022/01/01 08:06:00;;;;;;;57.75;24.33;;;11.80;99.90;;;;;;5109657;28;20040;-67
2022/01/01 08:08:26;;;;;;;54.58;24.58;;;11.70;99.90;;;;;;5110990;28;20046;-67
2022/01/01 08:10:52;;;;;;;60.20;24.35;;;11.80;99.90;;;;;;5109554;28;20052;-67
2022/01/01 08:13:25;;;;;;;58.83;25.33;;;12.00;99.90;;;;;;5110582;28;20113;-67
2022/01/01 08:15:55;;;;;;;50.75;24.30;;;12.00;99.90;;;;;;5107657;28;20533;-67
2022/01/01 08:18:21;;;;;;;55.10;23.50;;;11.90;99.90;;;;;;5107761;28;20144;-67
2022/01/01 08:20:47;;;;;;;55.08;24.58;;;11.90;99.90;;;;;;5111867;28;20090;-67
2022/01/01 08:23:14;;;;;;;53.92;23.27;;;12.10;99.90;;;;;;5111272;28;20040;-67
2022/01/01 08:25:40;;;;;;;50.92;23.38;;;12.00;99.90;;;;;;5111629;28;20044;-67
2022/01/01 08:28:07;;;;;;;47.55;23.33;;;12.00;99.90;;;;;;5110295;28;20043;-67
2022/01/01 08:30:35;;;;;;;45.45;22.55;;;12.00;99.90;;;;;;5109794;28;20101;-67
2022/01/01 08:33:02;;;;;;;45.83;23.55;;;12.10;99.90;;;;;;5110626;28;20044;-67
2022/01/01 08:35:29;;;;;;;49.72;24.17;;;12.10;99.90;;;;;;5090204;28;20068;-67
2022/01/01 08:37:56;;;;;;;45.47;24.23;;;12.30;99.90;;;;;;5110956;28;20061;-67
2022/01/01 08:40:26;;;;;;;47.22;23.70;;;12.30;99.90;;;;;;5126628;28;20047;-67
2022/01/01 08:42:52;;;;;;;58.28;25.90;;;12.30;99.90;;;;;;5128154;28;20552;-67
2022/01/01 08:45:18;;;;;;;47.70;25.15;;;12.30;99.90;;;;;;5109534;28;20550;-67
2022/01/01 08:47:44;;;;;;;55.85;25.60;;;12.30;99.90;;;;;;5110710;28;20039;-67
2022/01/01 08:50:10;;;;;;;61.83;28.02;;;12.10;99.90;;;;;;5112818;28;20051;-67
2022/01/01 08:52:36;;;;;;;60.22;26.38;;;12.20;99.90;;;;;;5110843;28;20053;-67
2022/01/01 08:55:02;;;;;;;64.28;29.35;;;12.10;99.90;;;;;;5109505;28;20607;-67
2022/01/01 08:57:31;;;;;;;61.85;30.23;;;12.20;99.90;;;;;;5105594;28;20040;-67
2022/01/01 09:00:03;;;;;;;65.25;30.10;;;12.30;99.90;;;;;;5109019;28;20040;-67
2022/01/01 09:02:28;;;;;;;64.40;30.75;;;12.20;99.90;;;;;;5107356;28;20052;-67
2022/01/01 09:04:54;;;;;;;68.65;31.30;;;12.30;99.90;;;;;;5103777;28;20391;-67
2022/01/01 09:07:20;;;;;;;67.70;31.52;;;12.30;99.90;;;;;;5106517;28;20048;-67
2022/01/01 09:09:45;;;;;;;60.35;28.88;;;12.50;99.90;;;;;;5105653;28;20032;-67
2022/01/01 09:12:12;;;;;;;64.05;32.35;;;12.50;99.90;;;;;;5104287;28;20040;-70
2022/01/01 09:14:38;;;;;;;69.10;31.02;;;12.20;99.90;;;;;;5105076;28;20054;-69
2022/01/01 09:17:05;;;;;;;63.72;31.35;;;12.30;99.90;;;;;;5107061;28;20100;-69
2022/01/01 09:19:31;;;;;;;67.55;30.10;;;12.20;99.90;;;;;;5116771;28;20119;-69
2022/01/01 09:21:56;;;;;;;64.43;32.30;;;12.30;99.90;;;;;;5120389;28;20079;-71
2022/01/01 09:24:22;;;;;;;64.90;30.83;;;12.40;99.90;;;;;;5117696;28;20059;-70
2022/01/01 09:26:48;;;;;;;57.63;27.95;;;12.40;99.90;;;;;;5116825;28;20039;-70
2022/01/01 09:29:14;;;;;;;52.13;27.05;;;12.30;99.90;;;;;;5118117;28;20044;-69
2022/01/01 09:31:41;;;;;;;52.75;26.88;;;12.50;99.90;;;;;;5119598;28;20040;-70
2022/01/01 09:34:08;;;;;;;59.35;28.80;;;12.50;99.90;;;;;;5117003;28;20071;-71
2022/01/01 09:36:34;;;;;;;54.28;26.67;;;12.50;99.90;;;;;;5114109;28;20051;-71
2022/01/01 09:39:03;;;;;;;51.92;25.70;;;12.50;99.90;;;;;;5105531;28;20036;-70
2022/01/01 09:41:29;;;;;;;50.67;26.13;;;12.60;99.90;;;;;;5104736;28;20415;-73
2022/01/01 09:43:56;;;;;;;48.05;26.75;;;12.70;99.90;;;;;;5105376;28;20065;-70
2022/01/01 09:46:23;;;;;;;45.95;25.38;;;12.60;99.90;;;;;;5087352;28;20059;-71
2022/01/01 09:48:50;;;;;;;57.47;25.10;;;12.70;99.90;;;;;;5112357;28;20090;-70
2022/01/01 09:51:16;;;;;;;44.70;25.83;;;12.60;99.90;;;;;;5109000;28;20040;-72
2022/01/01 09:53:42;;;;;;;42.80;24.05;;;12.60;99.90;;;;;;5104727;28;20044;-70
2022/01/01 09:56:08;;;;;;;44.30;22.40;;;12.50;99.90;;;;;;5104982;28;20095;-70
2022/01/01 09:58:35;;;;;;;41.60;23.67;;;12.70;99.90;;;;;;5104010;28;20108;-70
2022/01/01 10:01:02;;;;;;;40.75;22.30;;;12.70;99.90;;;;;;5094016;28;20051;-68
2022/01/01 10:03:40;;;;;;;45.72;22.90;;;12.60;99.90;;;;;;5108105;28;20040;-70
2022/01/01 10:06:14;;;;;;;41.50;23.25;;;12.70;99.90;;;;;;5103509;28;20105;-73
2022/01/01 10:08:41;;;;;;;40.20;21.50;;;12.70;99.90;;;;;;5055797;28;20113;-71
2022/01/01 10:11:08;;;;;;;46.95;21.70;;;12.70;99.90;;;;;;5049858;28;20142;-71
2022/01/01 10:13:37;;;;;;;35.92;21.77;;;12.70;99.90;;;;;;5069529;28;20075;-71
2022/01/01 10:16:06;;;;;;;39.40;21.20;;;12.80;99.90;;;;;;5087354;28;20036;-78
2022/01/01 10:18:35;;;;;;;40.70;21.30;;;12.70;99.90;;;;;;5105229;28;20096;-72
2022/01/01 10:21:08;;;;;;;37.38;19.20;;;12.70;99.90;;;;;;5086896;28;20042;-71
2022/01/01 10:23:35;;;;;;;31.35;19.60;;;12.80;99.90;;;;;;5083454;28;20071;-71
2022/01/01 10:29:18;;;;;;;35.45;17.80;;;13.00;99.90;;;;;;5103918;28;20079;-71
2022/01/01 10:31:58;;;;;;;30.88;15.52;;;13.10;99.90;;;;;;5070108;28;20060;-71
2022/01/01 10:34:30;;;;;;;28.38;16.15;;;12.90;99.90;;;;;;5079662;28;20071;-71
2022/01/01 10:36:56;;;;;;;32.35;15.98;;;12.90;99.90;;;;;;5073831;28;20043;-71
2022/01/01 10:39:23;;;;;;;28.60;15.50;;;12.90;99.90;;;;;;5101868;28;20050;-71
2022/01/01 10:42:00;;;;;;;27.23;15.13;;;12.90;99.90;;;;;;5070520;28;20044;-71
2022/01/01 10:44:39;;;;;;;28.23;13.82;;;12.80;99.90;;;;;;5079499;28;20044;-71
2022/01/01 10:47:17;;;;;;;25.60;14.57;;;13.00;99.90;;;;;;5037979;28;20224;-71
2022/01/01 10:52:16;;;;;;;30.15;14.00;;;12.80;99.90;;;;;;5062864;28;20056;-71
2022/01/01 10:55:03;;;;;;;22.90;12.85;;;12.90;99.90;;;;;;5072114;28;20051;-71
2022/01/01 10:57:41;;;;;;;27.48;12.52;;;12.90;99.90;;;;;;5101933;28;20048;-71
2022/01/01 11:00:15;;;;;;;26.25;13.50;;;12.90;99.90;;;;;;5085557;28;20052;-69
2022/01/01 11:02:48;;;;;;;27.13;13.00;;;13.00;99.90;;;;;;5079079;28;20048;-69
2022/01/01 11:05:15;;;;;;;22.27;12.15;;;13.10;99.90;;;;;;5041031;28;20124;-69
2022/01/01 11:07:52;;;;;;;24.52;11.95;;;13.10;99.90;;;;;;5053265;28;20134;-68
2022/01/01 11:10:19;;;;;;;20.50;11.52;;;13.00;99.90;;;;;;5065426;28;20047;-68
2022/01/01 11:12:46;;;;;;;20.35;11.35;;;13.40;99.90;;;;;;5082317;28;20084;-68
2022/01/01 11:15:12;;;;;;;24.77;11.25;;;13.40;99.90;;;;;;5067576;28;20105;-69
2022/01/01 11:17:39;;;;;;;25.65;10.95;;;13.20;99.90;;;;;;5069684;28;20615;-69
2022/01/01 11:20:06;;;;;;;21.17;10.20;;;13.30;99.90;;;;;;5064830;28;20076;-68
2022/01/01 11:22:33;;;;;;;24.35;10.30;;;13.20;99.90;;;;;;5052898;28;20059;-69
2022/01/01 11:24:59;;;;;;;20.75;10.38;;;13.30;99.90;;;;;;5075287;28;20048;-69
2022/01/01 11:27:26;;;;;;;21.90;10.02;;;13.40;99.90;;;;;;5068775;28;20097;-68
2022/01/01 11:29:53;;;;;;;22.48;10.60;;;13.20;99.90;;;;;;5066339;28;20039;-70
2022/01/01 11:32:23;;;;;;;20.17;9.48;;;13.20;99.90;;;;;;5082776;28;20047;-68
2022/01/01 11:34:53;;;;;;;18.40;9.65;;;13.30;99.90;;;;;;5087082;28;20348;-69
2022/01/01 11:37:23;;;;;;;20.88;9.38;;;13.20;99.90;;;;;;5101338;28;20042;-68
2022/01/01 11:39:56;;;;;;;17.98;9.05;;;13.10;99.90;;;;;;5095633;28;20071;-70
2022/01/01 11:42:22;;;;;;;20.60;8.80;;;13.20;99.90;;;;;;5103199;28;20125;-68
2022/01/01 11:44:54;;;;;;;17.70;9.20;;;13.10;99.90;;;;;;5121693;28;20032;-70
2022/01/01 11:47:22;;;;;;;19.15;8.43;;;13.10;99.90;;;;;;5068588;28;20052;-70
2022/01/01 11:49:50;;;;;;;19.30;9.60;;;13.10;99.90;;;;;;5078938;28;20419;-70
2022/01/01 11:52:41;;;;;;;20.38;9.07;;;13.10;99.90;;;;;;5065223;28;20052;-69
2022/01/01 11:55:13;;;;;;;17.83;8.35;;;13.10;99.90;;;;;;5097061;28;20407;-68
2022/01/01 11:57:53;;;;;;;18.38;7.82;;;13.10;99.90;;;;;;5096940;28;20062;-70
2022/01/01 12:00:21;;;;;;;;;;;13.10;99.90;;;;;;5087589;28;20048;-71
2022/01/01 12:02:49;;;;;;;20.10;8.48;;;13.10;99.90;;;;;;5080871;28;19984;-69
2022/01/01 12:05:21;;;;;;;19.20;8.70;;;13.10;99.90;;;;;;5086721;28;20048;-68
2022/01/01 12:07:56;;;;;;;16.65;7.35;;;13.10;99.90;;;;;;5082811;28;20048;-69
2022/01/01 12:10:25;;;;;;;20.23;7.22;;;13.10;99.90;;;;;;5062867;28;20056;-70
2022/01/01 12:13:04;;;;;;;14.30;8.13;;;13.10;99.90;;;;;;5071009;28;20036;-69
2022/01/01 12:15:37;;;;;;;16.38;7.22;;;13.10;99.90;;;;;;5083294;28;20087;-69
2022/01/01 12:18:23;;;;;;;17.58;7.22;;;13.00;99.90;;;;;;5078201;28;20040;-71
2022/01/01 12:20:57;;;;;;;15.68;7.00;;;13.00;99.90;;;;;;5050497;28;20382;-74
2022/01/01 12:23:25;;;;;;;14.73;7.20;;;13.10;99.90;;;;;;5078876;28;20043;-72
2022/01/01 12:25:52;;;;;;;15.25;6.65;;;13.20;99.90;;;;;;5054356;28;20058;-72
2022/01/01 12:28:25;;;;;;;15.70;7.75;;;13.10;99.90;;;;;;5109260;28;20096;-72
2022/01/01 12:30:53;;;;;;;14.23;7.72;;;13.10;99.90;;;;;;5079290;28;20052;-72
2022/01/01 12:33:41;;;;;;;13.38;7.10;;;13.10;99.90;;;;;;5074589;28;20075;-72
2022/01/01 12:36:09;;;;;;;16.38;7.38;;;13.10;99.90;;;;;;5080172;28;20140;-72
2022/01/01 12:38:39;;;;;;;14.75;6.65;;;13.10;99.90;;;;;;5097044;28;20039;-72
2022/01/01 12:41:07;;;;;;;15.07;7.05;;;13.20;99.90;;;;;;5081040;28;20048;-72